Hytop, Alabama
Current Conditions -  °F | °C
As of 7:15 AM on Wednesday 22 Oct 2014 (Local Time) from K4A6 Reporting Station
Clear Clear  
Wind Chill: 42°   Ceiling: Unl
Heat Index: 45°   Visibility: 10mi
Dew Point: 41°   Wind: 5mph
Humidity: 87%   Direction: 20°NNE
Pressure: 30.18"   Gusts: NA
Location:  34.7061°N, 86.0958°W
Report Text: K4A6 221215Z AUTO 02004KT 10SM CLR 07/05 A3018 RMK AO2
Loading
Personal Weather Stations






























Interactive Weather Map
Tropical Storm Tracking
New forecast layout! Learn more

10-Day Weather Forecast

Advertisements
Track Severe Weather on mobile